Time;durP1;ratioP1;P1;durP2;ratioP2;P2;SDS_P1;SDS_P2;PMS_P1;PMS_P2;Temp;Humidity;BMP_temperature;BMP_pressure;BME280_temperature;BME280_humidity;BME280_pressure;Samples;Min_cycle;Max_cycle;Signal;HPM_P1;HPM_P2
2023/10/10 00:06:13;;;;;;;;;;;;;;;;;;;;;
2023/10/10 00:09:50;;;;;;;25.10;16.90;;;;;;;8.75;87.27;100618.14;128083;1265;114525;-61
2023/10/10 00:13:27;;;;;;;19.50;14.50;;;;;;;8.72;87.22;100622.52;127692;1275;114004;-59
2023/10/10 00:17:08;;;;;;;21.10;13.90;;;;;;;8.70;87.36;100622.44;127710;1259;127887;-60
2023/10/10 00:29:11;;;;;;;;;;;;;;;;;;;;;
2023/10/10 00:32:53;;;;;;;19.40;15.60;;;;;;;8.69;87.67;100609.84;127290;1273;114887;-61
2023/10/10 00:36:54;;;;;;;19.30;14.50;;;;;;;8.68;87.66;100609.69;127633;1265;127753;-61
2023/10/10 00:40:29;;;;;;;22.60;16.90;;;;;;;8.67;87.78;100620.77;127585;1270;114816;-60
2023/10/10 00:44:10;;;;;;;23.30;16.10;;;;;;;8.70;87.85;100616.02;127464;1269;114325;-62
2023/10/10 00:47:52;;;;;;;20.00;15.10;;;;;;;8.72;87.94;100615.79;127954;1265;114416;-61
2023/10/10 00:51:21;;;;;;;21.30;16.30;;;;;;;8.70;87.97;100616.73;127600;1273;114879;-60
2023/10/10 00:54:49;;;;;;;22.00;15.70;;;;;;;8.69;87.87;100619.81;127826;1264;127902;-61
2023/10/10 00:58:15;;;;;;;20.00;15.50;;;;;;;8.68;88.03;100614.33;127738;1271;114725;-60
2023/10/10 01:01:56;;;;;;;21.50;16.30;;;;;;;8.69;88.04;100611.44;128133;1262;114359;-60
2023/10/10 01:05:23;;;;;;;23.40;16.60;;;;;;;8.67;88.07;100609.35;128149;1259;114236;-61
2023/10/10 01:13:09;;;;;;;;;;;;;;;;;;;;;
2023/10/10 01:16:54;;;;;;;23.30;15.30;;;;;;;8.67;88.34;100599.91;127995;1262;115028;-61
2023/10/10 01:20:50;;;;;;;24.40;16.20;;;;;;;8.65;88.44;100605.69;128320;1262;114794;-61
2023/10/10 01:24:34;;;;;;;23.70;16.70;;;;;;;8.63;88.37;100611.26;128408;1254;113637;-62
2023/10/10 01:28:00;;;;;;;21.00;16.80;;;;;;;8.63;88.79;100617.34;128110;1253;114540;-60
2023/10/10 01:31:23;;;;;;;;;;;;;;;;;;;;;
2023/10/10 01:35:07;;;;;;;;;;;;;;;;;;;;;
2023/10/10 01:39:02;;;;;;;;;;;;;;;8.60;88.63;100613.38;128228;1259;113512;-61
2023/10/10 01:42:45;;;;;;;21.70;15.30;;;;;;;8.57;88.93;100609.18;128013;1267;113987;-60
2023/10/10 01:46:58;;;;;;;23.00;16.60;;;;;;;8.60;88.89;100598.05;128211;1257;113534;-61
2023/10/10 01:50:09;;;;;;;23.80;17.10;;;;;;;8.61;88.95;100588.56;128264;1262;128918;-61
2023/10/10 01:53:21;;;;;;;28.70;18.00;;;;;;;8.62;88.93;100591.73;128142;1262;114869;-61
2023/10/10 01:57:07;;;;;;;24.40;17.00;;;;;;;8.61;88.79;100592.47;128025;1267;114647;-61
2023/10/10 02:00:52;;;;;;;;;;;;;;;;;;;;;
2023/10/10 02:04:35;;;;;;;21.90;16.90;;;;;;;8.62;88.95;100601.87;128218;1266;114412;-62
2023/10/10 02:12:39;;;;;;;23.10;17.80;;;;;;;8.63;88.83;100605.40;128081;1262;114763;-63
2023/10/10 02:24:40;;;;;;;28.40;16.70;;;;;;;8.61;88.88;100601.22;128701;1259;113883;-61
2023/10/10 02:36:30;;;;;;;24.00;17.00;;;;;;;8.56;88.86;100595.70;128250;1264;114255;-61
2023/10/10 02:45:07;;;;;;;;;;;;;;;;;;;;;
2023/10/10 02:48:00;;;;;;;24.00;16.70;;;;;;;8.53;88.89;100610.21;127175;1268;127732;-69
2023/10/10 02:56:13;;;;;;;22.10;16.40;;;;;;;8.56;89.21;100615.11;127510;1268;113841;-61
2023/10/10 02:59:51;;;;;;;27.60;16.70;;;;;;;8.56;89.00;100619.92;127560;1271;114838;-66
2023/10/10 03:07:50;;;;;;;;;;;;;;;;;;;;;
2023/10/10 03:15:58;;;;;;;29.30;18.90;;;;;;;8.56;89.59;100610.81;127531;1271;114490;-67
2023/10/10 03:19:38;;;;;;;25.60;17.90;;;;;;;8.59;89.78;100616.59;127274;1272;113705;-73
2023/10/10 03:23:51;;;;;;;;;;;;;;;;;;;;;
2023/10/10 03:31:41;;;;;;;;;;;;;;;;;;;;;
2023/10/10 03:35:33;;;;;;;30.00;19.30;;;;;;;8.61;89.82;100617.58;125201;1292;115602;-75
2023/10/10 05:26:00;;;;;;;40.60;26.50;;;;;;;9.08;90.36;100613.01;134518;1257;112465;-60
2023/10/10 05:34:00;;;;;;;45.40;27.10;;;;;;;9.11;90.49;100620.70;134374;1257;112827;-60
2023/10/10 05:37:16;;;;;;;41.50;25.20;;;;;;;9.14;90.46;100622.94;133967;1264;127801;-59
2023/10/10 05:40:51;;;;;;;36.50;24.80;;;;;;;9.15;90.48;100620.55;134267;1259;112708;-59
2023/10/10 05:44:07;;;;;;;43.20;26.80;;;;;;;9.15;90.38;100618.97;134015;1268;112485;-60
2023/10/10 05:47:46;;;;;;;39.80;25.80;;;;;;;9.14;90.52;100624.89;133869;1265;112600;-60
2023/10/10 05:51:10;;;;;;;37.90;25.50;;;;;;;9.17;90.51;100629.80;133985;1264;112566;-59
2023/10/10 05:54:19;;;;;;;45.20;28.10;;;;;;;9.20;90.57;100642.31;133945;1264;128799;-62
2023/10/10 05:57:25;;;;;;;40.40;27.10;;;;;;;9.22;90.56;100650.96;133953;1265;112959;-60
2023/10/10 06:00:49;;;;;;;;;;;;;;;;;;;;;
2023/10/10 06:04:19;;;;;;;41.20;27.60;;;;;;;9.33;90.81;100640.36;133964;1265;112516;-60
2023/10/10 06:07:30;;;;;;;40.10;28.00;;;;;;;9.42;90.93;100644.33;133972;1265;113011;-62
2023/10/10 06:10:53;;;;;;;43.50;28.10;;;;;;;9.50;90.81;100643.11;133960;1265;128911;-60
2023/10/10 06:14:07;;;;;;;42.90;27.70;;;;;;;9.55;90.60;100645.92;134162;1259;112826;-61
2023/10/10 06:17:21;;;;;;;;;;;;;;;;;;;;;
2023/10/10 06:20:29;;;;;;;46.00;29.40;;;;;;;9.64;90.71;100649.85;134633;1254;112725;-62
2023/10/10 06:23:44;;;;;;;43.70;29.40;;;;;;;9.69;90.56;100658.02;134723;1252;112561;-61
2023/10/10 06:26:49;;;;;;;38.70;27.70;;;;;;;9.73;90.64;100662.16;135097;1252;128651;-70
2023/10/10 06:30:00;;;;;;;;;;;;;;;9.78;90.52;100660.21;135036;1253;112462;-63
2023/10/10 06:33:38;;;;;;;45.00;27.70;;;;;;;9.82;90.51;100665.71;135088;1254;112278;-77
2023/10/10 06:36:47;;;;;;;36.30;25.00;;;;;;;9.86;90.20;100677.89;135090;1254;112452;-76
2023/10/10 06:40:08;;;;;;;36.60;25.30;;;;;;;9.90;90.22;100675.04;135064;1254;112430;-65
2023/10/10 06:43:34;;;;;;;39.60;24.30;;;;;;;9.95;90.40;100670.20;135053;1256;128756;-65
2023/10/10 06:46:46;;;;;;;34.50;24.60;;;;;;;9.99;90.06;100670.21;135086;1253;112816;-64
2023/10/10 06:50:21;;;;;;;40.10;24.40;;;;;;;10.02;90.19;100672.77;135072;1254;112385;-67
2023/10/10 06:53:46;;;;;;;36.20;25.70;;;;;;;10.09;90.27;100668.73;135073;1254;112443;-63
2023/10/10 06:57:29;;;;;;;41.50;24.60;;;;;;;10.15;90.21;100668.13;135016;1254;112429;-75
2023/10/10 07:01:04;;;;;;;37.50;26.40;;;;;;;10.20;89.80;100677.73;134849;1253;128136;-67
2023/10/10 07:05:01;;;;;;;38.20;24.70;;;;;;;10.28;90.16;100675.63;134345;1260;112770;-71
2023/10/10 07:09:14;;;;;;;39.80;25.00;;;;;;;10.39;90.40;100680.37;134275;1260;112570;-65
2023/10/10 07:12:15;;;;;;;33.70;24.10;;;;;;;10.40;89.43;100677.48;134374;1261;112475;-65
2023/10/10 07:15:32;;;;;;;43.70;27.20;;;;;;;10.43;89.44;100681.25;133879;1267;112548;-61
2023/10/10 07:19:28;;;;;;;43.10;27.20;;;;;;;10.49;89.67;100680.28;133873;1267;127946;-60
2023/10/10 07:24:02;;;;;;;47.00;29.20;;;;;;;10.61;89.69;100684.27;133751;1267;112904;-59
2023/10/10 07:26:41;;;;;;;42.50;29.50;;;;;;;10.68;89.84;100683.77;133784;1267;112640;-60
2023/10/10 07:33:03;;;;;;;46.10;29.10;;;;;;;10.83;89.46;100674.21;133844;1267;112487;-60
2023/10/10 07:36:31;;;;;;;45.80;29.10;;;;;;;10.88;89.43;100670.18;133849;1268;112460;-60
2023/10/10 07:40:19;;;;;;;41.50;28.20;;;;;;;11.02;89.07;100675.63;133257;1267;127554;-60
2023/10/10 07:43:34;;;;;;;47.60;30.90;;;;;;;11.07;89.09;100679.88;134094;1260;113007;-59
2023/10/10 07:47:07;;;;;;;43.40;28.40;;;;;;;11.17;89.33;100674.97;134314;1260;112599;-60
2023/10/10 07:50:43;;;;;;;45.80;30.10;;;;;;;11.27;89.06;100672.91;134280;1260;112562;-59
2023/10/10 07:57:59;;;;;;;53.50;30.80;;;;;;;11.53;89.27;100669.18;134206;1263;128812;-64
2023/10/10 08:01:27;;;;;;;38.60;26.60;;;;;;;11.73;89.31;100665.36;135043;1253;112444;-65
2023/10/10 08:05:30;;;;;;;49.20;27.50;;;;;;;12.01;88.76;100657.42;135057;1254;112351;-61
2023/10/10 08:08:48;;;;;;;44.40;27.60;;;;;;;12.24;88.42;100661.48;135073;1253;112343;-65
2023/10/10 08:16:45;;;;;;;;;;;;;;;;;;;;;
2023/10/10 08:20:02;;;;;;;;;;;;;;;;;;;;;
2023/10/10 08:23:29;;;;;;;37.40;26.60;;;;;;;13.15;87.67;100669.45;135103;1251;112646;-78
2023/10/10 08:31:10;;;;;;;;;;;;;;;13.56;87.14;100670.45;134541;1257;112807;-67
2023/10/10 08:34:14;;;;;;;33.60;22.90;;;;;;;13.61;86.26;100671.79;134465;1260;127800;-66
2023/10/10 08:37:17;;;;;;;35.00;24.00;;;;;;;13.63;86.15;100672.20;134505;1257;112556;-62
2023/10/10 08:44:58;;;;;;;34.70;22.10;;;;;;;13.92;85.97;100681.73;134528;1257;112517;-61
2023/10/10 08:53:11;;;;;;;29.20;20.30;;;;;;;13.82;85.08;100684.63;134116;1262;127829;-65
2023/10/10 08:56:51;;;;;;;;;;;;;;;13.82;85.15;100681.92;133982;1263;112699;-61
2023/10/10 09:00:32;;;;;;;28.10;21.10;;;;;;;13.85;85.35;100675.84;134056;1263;112459;-65
2023/10/10 09:03:57;;;;;;;29.20;20.80;;;;;;;13.97;85.40;100671.89;134127;1263;112524;-61
2023/10/10 09:07:23;;;;;;;33.50;21.00;;;;;;;14.14;85.46;100671.85;134131;1263;112732;-70
2023/10/10 09:10:41;;;;;;;29.30;20.00;;;;;;;14.29;84.89;100661.05;134256;1261;127814;-76
2023/10/10 09:14:14;;;;;;;;;;;;;;;;;;;;;
2023/10/10 09:18:09;;;;;;;26.70;19.40;;;;;;;14.42;83.96;100663.49;134093;1260;112601;-74
2023/10/10 09:29:34;;;;;;;25.00;18.20;;;;;;;14.60;84.00;100675.02;134013;1261;127974;-79
2023/10/10 09:33:21;;;;;;;23.20;17.40;;;;;;;14.68;83.27;100680.89;134104;1260;112572;-80
2023/10/10 09:36:51;;;;;;;23.60;16.20;;;;;;;14.71;83.12;100676.39;134041;1260;112590;-78
2023/10/10 09:40:01;;;;;;;24.30;17.10;;;;;;;14.83;83.60;100680.72;134186;1260;112523;-76
2023/10/10 09:43:44;;;;;;;22.80;16.90;;;;;;;14.90;83.07;100684.79;134237;1260;112522;-78
2023/10/10 09:59:56;;;;;;;22.70;17.10;;;;;;;15.05;82.53;100681.71;134958;1254;112271;-75
2023/10/10 10:07:12;;;;;;;24.70;16.50;;;;;;;15.42;82.23;100687.68;133919;1267;129437;-75
2023/10/10 10:10:52;;;;;;;19.20;15.50;;;;;;;15.59;81.90;100685.86;133914;1265;112526;-80
2023/10/10 10:14:49;;;;;;;22.40;15.60;;;;;;;15.73;81.58;100677.56;133652;1266;112578;-76
2023/10/10 10:18:27;;;;;;;19.30;13.80;;;;;;;15.96;81.47;100672.83;133528;1270;112534;-78
2023/10/10 10:35:19;;;;;;;19.20;14.30;;;;;;;16.71;80.29;100664.01;131752;1283;112986;-74
2023/10/10 10:39:18;;;;;;;15.60;11.90;;;;;;;16.90;79.93;100663.29;130779;1292;112583;-77
2023/10/10 10:42:32;;;;;;;18.00;13.90;;;;;;;17.02;79.75;100662.41;130791;1288;112649;-65
2023/10/10 10:45:53;;;;;;;18.40;12.80;;;;;;;17.13;79.66;100665.77;131637;1283;125653;-72
2023/10/10 10:54:01;;;;;;;21.30;14.10;;;;;;;17.28;79.46;100653.56;131669;1283;112621;-61
2023/10/10 10:57:11;;;;;;;19.70;14.10;;;;;;;17.44;79.33;100648.09;132647;1276;112497;-76
2023/10/10 11:01:00;;;;;;;19.90;14.70;;;;;;;17.53;78.86;100651.80;132708;1268;112814;-61
2023/10/10 11:05:30;;;;;;;21.80;15.50;;;;;;;17.66;79.04;100656.27;133977;1262;126740;-61
2023/10/10 11:13:25;;;;;;;25.90;17.30;;;;;;;17.91;78.37;100652.21;134107;1262;112453;-60
2023/10/10 11:17:17;;;;;;;23.80;16.20;;;;;;;18.06;78.12;100649.34;134497;1254;112554;-60
2023/10/10 11:29:20;;;;;;;20.90;15.20;;;;;;;18.15;77.29;100653.91;133807;1266;112621;-59
2023/10/10 11:37:22;;;;;;;24.00;16.70;;;;;;;17.93;76.57;100650.80;132224;1279;112597;-61
2023/10/10 11:49:25;;;;;;;;;;;;;;;;;;;;;
2023/10/10 11:53:46;;;;;;;27.70;15.10;;;;;;;17.71;76.62;100640.83;131768;1282;112573;-60
2023/10/10 11:57:08;;;;;;;;;;;;;;;;;;;;;
2023/10/10 12:00:54;;;;;;;26.60;15.90;;;;;;;17.79;77.23;100642.84;132497;1273;113078;-66
2023/10/10 12:04:44;;;;;;;21.40;14.30;;;;;;;17.83;76.92;100644.53;132970;1273;127623;-61
2023/10/10 12:08:18;;;;;;;;;;;;;;;;;;;;;
2023/10/10 12:16:22;;;;;;;;;;;;;;;17.83;77.65;100637.08;134228;1261;112511;-59
2023/10/10 12:20:25;;;;;;;20.30;12.80;;;;;;;17.85;77.79;100638.19;134179;1260;112599;-62
2023/10/10 12:23:56;;;;;;;15.80;11.30;;;;;;;17.91;77.90;100642.65;133631;1267;126820;-64
2023/10/10 12:27:44;;;;;;;;;;;;;;;;;;;;;
2023/10/10 12:35:25;;;;;;;7.70;6.40;;;;;;;17.96;77.58;100642.27;133483;1270;112740;-63
2023/10/10 12:38:35;;;;;;;10.50;7.40;;;;;;;17.92;77.60;100643.27;133461;1270;112772;-70
2023/10/10 12:46:34;;;;;;;;;;;;;;;;;;;;;
2023/10/10 12:49:48;;;;;;;8.40;5.10;;;;;;;17.76;78.07;100642.27;132780;1270;112587;-65
2023/10/10 12:56:53;;;;;;;6.30;5.20;;;;;;;17.78;78.85;100639.84;132801;1270;112579;-63
2023/10/10 13:00:23;;;;;;;4.60;3.90;;;;;;;17.80;79.16;100637.52;133626;1263;128873;-61
2023/10/10 13:03:41;;;;;;;;;;;;;;;;;;;;;
2023/10/10 13:07:02;;;;;;;5.50;4.50;;;;;;;18.02;79.38;100625.94;133882;1256;112489;-63
2023/10/10 13:10:14;;;;;;;6.60;4.00;;;;;;;18.07;79.28;100619.23;134440;1256;112578;-64
2023/10/10 13:13:45;;;;;;;4.10;3.10;;;;;;;18.10;79.37;100612.02;134573;1255;112460;-66
2023/10/10 13:17:01;;;;;;;6.20;4.50;;;;;;;18.18;79.29;100612.44;134408;1256;126790;-65
2023/10/10 13:20:33;;;;;;;5.30;4.00;;;;;;;18.21;79.23;100614.20;134687;1256;112351;-65
2023/10/10 13:24:38;;;;;;;6.10;4.30;;;;;;;18.21;79.22;100619.94;134450;1256;112579;-64
2023/10/10 13:28:19;;;;;;;4.90;4.20;;;;;;;18.24;79.39;100615.24;134105;1262;112696;-63
2023/10/10 13:32:03;;;;;;;6.20;4.70;;;;;;;18.27;79.01;100610.54;133404;1262;112496;-62
2023/10/10 13:40:00;;;;;;;;;;;;;;;;;;;;;
2023/10/10 13:43:43;;;;;;;;;;;;;;;;;;;;;
2023/10/10 13:47:09;;;;;;;4.90;4.00;;;;;;;18.23;78.70;100594.17;133561;1270;112543;-63
2023/10/10 13:51:29;;;;;;;4.30;3.90;;;;;;;18.22;78.73;100597.67;132782;1270;113087;-65
2023/10/10 13:54:16;;;;;;;3.50;2.90;;;;;;;18.19;78.42;100599.38;133110;1270;127848;-64
2023/10/10 13:57:59;;;;;;;4.70;3.50;;;;;;;18.15;78.51;100602.55;133488;1270;112632;-64
2023/10/10 14:01:29;;;;;;;3.20;2.70;;;;;;;18.14;78.56;100600.10;132960;1269;112556;-67
2023/10/10 14:05:03;;;;;;;;;;;;;;;;;;;;;
2023/10/10 14:08:39;;;;;;;2.90;2.70;;;;;;;18.02;78.15;100609.16;134059;1262;112585;-64
2023/10/10 14:12:19;;;;;;;;;;;;;;;;;;;;;
2023/10/10 14:16:02;;;;;;;3.50;2.80;;;;;;;17.80;77.81;100603.33;134090;1262;112642;-68
2023/10/10 14:23:44;;;;;;;4.70;3.00;;;;;;;17.52;77.93;100599.29;133383;1267;112572;-64
2023/10/10 14:27:28;;;;;;;6.80;3.10;;;;;;;17.45;78.21;100596.20;133809;1266;112754;-62
2023/10/10 14:31:22;;;;;;;4.40;3.40;;;;;;;17.35;78.01;100600.56;133635;1267;127977;-68
2023/10/10 14:34:45;;;;;;;4.60;3.40;;;;;;;17.26;78.22;100596.14;133835;1267;112470;-66
2023/10/10 14:38:03;;;;;;;4.60;3.20;;;;;;;17.16;78.24;100600.84;133877;1267;112505;-70
2023/10/10 14:41:19;;;;;;;3.90;3.20;;;;;;;17.07;78.45;100602.48;133523;1267;112922;-69
2023/10/10 14:44:40;;;;;;;5.70;3.60;;;;;;;17.00;78.45;100597.41;133835;1266;112521;-67
2023/10/10 14:47:55;;;;;;;4.10;2.90;;;;;;;16.93;78.48;100597.73;133816;1267;128010;-65
2023/10/10 14:51:05;;;;;;;3.40;3.10;;;;;;;16.86;78.67;100598.77;133850;1266;112627;-70
2023/10/10 14:54:21;;;;;;;3.50;3.20;;;;;;;16.82;78.83;100607.34;133922;1262;112483;-64
2023/10/10 14:57:34;;;;;;;3.10;2.80;;;;;;;16.80;78.96;100603.51;134782;1255;112367;-62
2023/10/10 15:00:44;;;;;;;3.80;3.40;;;;;;;16.81;79.35;100600.05;134792;1256;112329;-69
2023/10/10 15:03:59;;;;;;;;;;;;;;;;;;;;;
2023/10/10 15:07:04;;;;;;;3.90;3.40;;;;;;;16.79;79.05;100604.83;134788;1255;112587;-67
2023/10/10 15:10:18;;;;;;;3.90;2.80;;;;;;;16.71;78.77;100607.78;134832;1255;112385;-62
2023/10/10 15:13:35;;;;;;;4.20;3.50;;;;;;;16.60;78.77;100606.38;134774;1255;112365;-65
2023/10/10 15:16:50;;;;;;;6.80;5.50;;;;;;;16.48;78.98;100607.20;134675;1256;112552;-66
2023/10/10 15:20:11;;;;;;;;;;;;;;;;;;;;;
2023/10/10 15:23:27;;;;;;;3.70;3.40;;;;;;;16.20;79.06;100611.48;134750;1256;112509;-61
2023/10/10 15:26:30;;;;;;;;;;;;;;;16.07;79.07;100608.92;134878;1255;112359;-66
2023/10/10 15:30:08;;;;;;;4.50;3.30;;;;;;;15.93;79.26;100604.24;134802;1256;112378;-68
2023/10/10 15:33:30;;;;;;;3.70;2.80;;;;;;;15.79;79.57;100609.27;134790;1255;112498;-68
2023/10/10 15:36:40;;;;;;;4.00;2.80;;;;;;;15.67;79.71;100610.61;134781;1256;127647;-61
2023/10/10 15:39:49;;;;;;;5.90;3.10;;;;;;;15.57;80.10;100613.59;134779;1255;112425;-71
2023/10/10 15:43:17;;;;;;;5.20;3.50;;;;;;;15.49;80.29;100614.67;134831;1256;112389;-64
2023/10/10 15:46:27;;;;;;;4.90;2.90;;;;;;;15.41;80.77;100617.54;134518;1256;113254;-60
2023/10/10 15:49:38;;;;;;;3.90;2.90;;;;;;;15.33;80.92;100623.05;134510;1256;112764;-61
2023/10/10 15:53:01;;;;;;;4.30;3.30;;;;;;;15.26;81.15;100623.04;134662;1255;128823;-69
2023/10/10 16:04:13;;;;;;;5.10;4.00;;;;;;;14.91;81.58;100619.98;134100;1260;112641;-65
2023/10/10 16:08:06;;;;;;;4.60;3.60;;;;;;;14.78;81.08;100621.50;134107;1260;112571;-68
2023/10/10 16:15:56;;;;;;;;;;;;;;;;;;;;;
2023/10/10 16:19:24;;;;;;;4.70;3.60;;;;;;;14.20;81.06;100626.73;133402;1270;112592;-64
2023/10/10 16:22:57;;;;;;;7.40;4.60;;;;;;;14.03;80.93;100625.42;133075;1270;113279;-68
2023/10/10 16:26:18;;;;;;;4.80;3.80;;;;;;;13.85;80.89;100631.28;132054;1276;112886;-64
2023/10/10 16:29:21;;;;;;;4.70;4.20;;;;;;;13.69;81.11;100633.30;132403;1276;128749;-68
2023/10/10 16:32:35;;;;;;;6.00;4.20;;;;;;;13.54;81.36;100626.79;132421;1276;113048;-72
2023/10/10 16:35:49;;;;;;;6.30;4.40;;;;;;;13.40;81.63;100637.80;132058;1281;112666;-66
2023/10/10 16:39:10;;;;;;;5.80;3.20;;;;;;;13.24;81.66;100640.25;133086;1270;112662;-70
2023/10/10 16:42:29;;;;;;;6.60;4.40;;;;;;;13.08;81.76;100636.98;133081;1271;112585;-60
2023/10/10 16:50:39;;;;;;;8.50;5.40;;;;;;;12.76;82.22;100641.06;134071;1262;112695;-69
2023/10/10 16:58:23;;;;;;;10.80;5.50;;;;;;;12.44;82.55;100644.48;134117;1262;112557;-70
2023/10/10 17:01:49;;;;;;;10.00;5.50;;;;;;;12.30;82.64;100640.58;134080;1263;112521;-72
2023/10/10 17:05:36;;;;;;;9.40;5.90;;;;;;;12.18;82.79;100636.34;134353;1257;127913;-71
2023/10/10 17:09:08;;;;;;;7.90;5.00;;;;;;;12.06;83.23;100645.34;134803;1255;112609;-63
2023/10/10 17:12:30;;;;;;;12.40;5.60;;;;;;;11.93;83.34;100641.31;134535;1257;112450;-66
2023/10/10 17:16:09;;;;;;;13.70;6.30;;;;;;;11.83;83.50;100636.96;134702;1256;112340;-67
2023/10/10 17:19:41;;;;;;;13.60;6.90;;;;;;;11.72;83.48;100634.99;134844;1254;112420;-61
2023/10/10 17:27:37;;;;;;;9.20;7.40;;;;;;;11.54;84.13;100640.53;134879;1253;112308;-65
2023/10/10 17:35:23;;;;;;;14.30;9.90;;;;;;;11.36;84.65;100654.77;134115;1262;112464;-63
2023/10/10 17:39:00;;;;;;;16.50;9.70;;;;;;;11.31;84.57;100655.73;134095;1262;112683;-62
2023/10/10 17:42:53;;;;;;;16.50;10.00;;;;;;;11.28;85.19;100653.52;134098;1262;126959;-62
2023/10/10 17:46:32;;;;;;;18.60;10.70;;;;;;;11.29;85.48;100654.05;133297;1268;112728;-67
2023/10/10 17:50:07;;;;;;;20.90;10.50;;;;;;;11.30;86.04;100645.04;133715;1268;112889;-63
2023/10/10 18:02:08;;;;;;;;;;;;;;;;;;;;;
2023/10/10 18:06:19;;;;;;;;;;;;;;;;;;;;;
2023/10/10 18:14:22;;;;;;;16.60;12.50;;;;;;;11.31;88.06;100638.01;131739;1284;112978;-61
2023/10/10 18:17:41;;;;;;;20.90;12.00;;;;;;;11.31;88.32;100635.36;131730;1284;112729;-62
2023/10/10 18:21:09;;;;;;;19.20;12.00;;;;;;;11.30;88.30;100632.54;131698;1285;127632;-61
2023/10/10 18:24:28;;;;;;;17.80;11.40;;;;;;;11.29;88.77;100636.33;132263;1279;112755;-63
2023/10/10 18:27:52;;;;;;;20.80;12.20;;;;;;;11.29;88.90;100638.84;132274;1279;112649;-63
2023/10/10 18:31:45;;;;;;;16.00;12.10;;;;;;;11.28;89.11;100633.84;132331;1279;112580;-63
2023/10/10 18:35:32;;;;;;;17.80;11.90;;;;;;;11.28;89.01;100636.95;132229;1279;112654;-64
2023/10/10 18:39:03;;;;;;;;;;;;;;;;;;;;;
2023/10/10 18:42:15;;;;;;;16.10;11.60;;;;;;;11.24;89.15;100636.04;132480;1274;112821;-65
2023/10/10 18:45:33;;;;;;;21.50;12.60;;;;;;;11.24;89.63;100639.98;133199;1267;112979;-61
2023/10/10 18:53:38;;;;;;;17.90;13.00;;;;;;;11.29;90.35;100640.84;133750;1267;112550;-69
2023/10/10 19:04:56;;;;;;;19.90;13.70;;;;;;;11.36;91.23;100638.33;133804;1267;112501;-67
2023/10/10 19:08:26;;;;;;;23.70;14.30;;;;;;;11.37;91.17;100635.21;133779;1267;112472;-73
2023/10/10 19:11:34;;;;;;;23.80;16.00;;;;;;;11.38;91.38;100631.98;133682;1267;112578;-62
2023/10/10 19:14:40;;;;;;;23.00;15.80;;;;;;;11.39;91.38;100627.82;133735;1267;127971;-67
2023/10/10 19:17:49;;;;;;;25.30;16.80;;;;;;;11.41;91.37;100622.00;133684;1267;112644;-64
2023/10/10 19:21:12;;;;;;;25.90;17.60;;;;;;;11.44;91.89;100624.19;133531;1267;112642;-64
2023/10/10 19:24:28;;;;;;;24.40;16.90;;;;;;;11.45;92.06;100616.26;134254;1261;112546;-64
2023/10/10 19:27:52;;;;;;;24.40;17.50;;;;;;;11.46;92.21;100612.09;134683;1254;112818;-63
2023/10/10 19:31:51;;;;;;;;;;;;;;;;;;;;;
2023/10/10 19:35:38;;;;;;;25.50;17.00;;;;;;;11.47;92.19;100611.18;134123;1262;127736;-64
2023/10/10 19:38:58;;;;;;;24.40;15.70;;;;;;;11.47;92.34;100610.44;134153;1262;112868;-62
2023/10/10 19:42:30;;;;;;;;;;;;;;;;;;;;;
2023/10/10 19:45:55;;;;;;;;;;;;;;;;;;;;;
2023/10/10 19:49:28;;;;;;;;;;;;;;;11.54;93.18;100595.61;134148;1263;112620;-61
2023/10/10 19:52:50;;;;;;;28.50;16.80;;;;;;;11.55;93.16;100594.12;134082;1262;128005;-61
2023/10/10 19:56:04;;;;;;;31.20;16.90;;;;;;;11.56;93.10;100594.09;134136;1262;112698;-64
2023/10/10 19:59:42;;;;;;;27.50;18.50;;;;;;;11.58;93.28;100597.05;134112;1262;112427;-62
2023/10/10 20:03:13;;;;;;;;;;;;;;;;;;;;;
2023/10/10 20:06:33;;;;;;;30.60;18.00;;;;;;;11.58;93.36;100592.40;134039;1262;112493;-62
2023/10/10 20:19:07;;;;;;;25.10;17.00;;;;;;;11.54;93.39;100579.70;134879;1256;112579;-60
2023/10/10 20:22:34;;;;;;;28.70;17.30;;;;;;;11.54;93.30;100581.84;134855;1253;112381;-61
2023/10/10 20:25:50;;;;;;;28.90;17.40;;;;;;;11.55;93.61;100579.11;134709;1254;112648;-62
2023/10/10 20:29:15;;;;;;;;;;;;;;;;;;;;;
2023/10/10 20:32:18;;;;;;;25.00;17.40;;;;;;;11.58;94.00;100573.44;134870;1254;112530;-62
2023/10/10 20:35:25;;;;;;;25.10;16.70;;;;;;;11.59;93.91;100569.61;134916;1253;112366;-62
2023/10/10 20:38:58;;;;;;;28.80;18.40;;;;;;;11.60;94.15;100567.73;134733;1254;112445;-62
2023/10/10 20:42:24;;;;;;;;;;;;;;;;;;;;;
2023/10/10 20:45:28;;;;;;;31.40;19.40;;;;;;;11.62;93.95;100556.23;134508;1254;129308;-60
2023/10/10 20:48:34;;;;;;;27.70;19.30;;;;;;;11.65;94.44;100548.77;134742;1254;112733;-62
2023/10/10 20:51:44;;;;;;;31.60;21.00;;;;;;;11.67;94.51;100551.15;134873;1254;112346;-68
2023/10/10 20:54:56;;;;;;;30.10;20.60;;;;;;;11.70;94.62;100547.95;134881;1254;112369;-62
2023/10/10 20:58:31;;;;;;;27.80;19.60;;;;;;;11.74;94.73;100552.09;134857;1256;112332;-63
2023/10/10 21:01:36;;;;;;;30.40;20.00;;;;;;;11.77;94.67;100550.13;134831;1254;127855;-66
2023/10/10 21:05:02;;;;;;;35.10;19.50;;;;;;;11.79;94.78;100541.97;134715;1254;112473;-62
2023/10/10 21:08:30;;;;;;;27.80;19.00;;;;;;;11.82;94.93;100543.94;134899;1254;112291;-63
2023/10/10 21:12:11;;;;;;;;;;;;;;;;;;;;;
2023/10/10 21:15:28;;;;;;;25.40;17.40;;;;;;;11.90;95.24;100542.66;134632;1254;112518;-61
2023/10/10 21:23:10;;;;;;;27.10;16.20;;;;;;;11.98;95.29;100537.25;134752;1256;112552;-66
2023/10/10 21:26:39;;;;;;;23.00;15.50;;;;;;;12.03;95.45;100538.12;134819;1254;112416;-63
2023/10/10 21:42:24;;;;;;;20.70;14.40;;;;;;;12.20;95.90;100514.31;133924;1263;112786;-61
2023/10/10 21:45:24;;;;;;;21.20;13.90;;;;;;;12.23;95.85;100510.92;134042;1265;112692;-62
2023/10/10 21:53:48;;;;;;;23.00;13.40;;;;;;;12.32;95.90;100512.21;134106;1263;112495;-62
2023/10/10 21:56:54;;;;;;;22.10;15.50;;;;;;;12.37;96.11;100504.98;133292;1268;127738;-61
2023/10/10 22:00:43;;;;;;;;;;;;;;;;;;;;;
2023/10/10 22:04:37;;;;;;;28.90;18.20;;;;;;;12.43;96.10;100494.80;133278;1268;112564;-65
2023/10/10 22:08:25;;;;;;;35.20;22.70;;;;;;;12.46;95.93;100493.89;133175;1269;112551;-60
2023/10/10 22:20:43;;;;;;;;;;;;;;;;;;;;;
2023/10/10 22:28:58;;;;;;;26.90;17.00;;;;;;;12.56;95.79;100481.77;132330;1279;112527;-60
2023/10/10 22:37:23;;;;;;;25.10;16.90;;;;;;;12.63;95.92;100476.70;124908;1294;636020;-60
2023/10/10 22:40:55;;;;;;;31.60;18.90;;;;;;;12.64;95.86;100472.55;127487;1267;128722;-61
2023/10/10 22:44:53;;;;;;;26.50;18.30;;;;;;;12.64;95.79;100467.16;127137;1268;114735;-61
2023/10/10 22:48:42;;;;;;;27.70;18.20;;;;;;;12.66;95.75;100469.21;127402;1271;113845;-61
2023/10/10 22:52:27;;;;;;;;;;;;;;;;;;;;;
2023/10/10 22:56:25;;;;;;;32.70;20.50;;;;;;;12.70;96.01;100473.08;127248;1273;113941;-62
2023/10/10 23:13:15;;;;;;;28.50;17.70;;;;;;;12.71;95.85;100452.80;126861;1275;115382;-61
2023/10/10 23:27:57;;;;;;;21.90;17.00;;;;;;;12.76;95.97;100441.91;127542;1270;113848;-61
2023/10/10 23:32:09;;;;;;;28.60;18.60;;;;;;;12.78;96.04;100438.27;127264;1270;113702;-61
2023/10/10 23:36:02;;;;;;;27.80;16.80;;;;;;;12.80;96.18;100430.77;126261;1286;114266;-62
2023/10/10 23:40:13;;;;;;;27.70;17.30;;;;;;;12.82;96.27;100428.31;126270;1280;114575;-61
2023/10/10 23:56:08;;;;;;;20.60;14.20;;;;;;;12.86;96.19;100408.40;125230;1291;114599;-60
